Time;durP1;ratioP1;P1;durP2;ratioP2;P2;SDS_P1;SDS_P2;PMS_P1;PMS_P2;Temp;Humidity;BMP_temperature;BMP_pressure;BME280_temperature;BME280_humidity;BME280_pressure;Samples;Min_cycle;Max_cycle;Signal;HPM_P1;HPM_P2
2022/08/27 00:02:01;;;;;;;6.47;2.13;;;;;;;17.50;91.18;101673.91;5078240;28;20028;-63
2022/08/27 00:04:26;;;;;;;3.70;2.33;;;;;;;17.43;91.50;101674.66;5089052;28;20026;-63
2022/08/27 00:06:51;;;;;;;3.00;1.92;;;;;;;17.41;91.55;101671.16;5086819;28;20028;-63
2022/08/27 00:09:17;;;;;;;6.03;2.03;;;;;;;17.35;91.80;101678.91;5078118;28;20024;-64
2022/08/27 00:11:43;;;;;;;4.82;2.10;;;;;;;17.27;92.33;101669.19;5075789;28;20025;-64
2022/08/27 00:14:09;;;;;;;4.95;2.97;;;;;;;17.18;92.83;101666.38;5084994;28;20070;-63
2022/08/27 00:16:34;;;;;;;5.53;2.10;;;;;;;17.10;93.57;101660.13;5085279;28;20020;-62
2022/08/27 00:18:59;;;;;;;3.83;2.15;;;;;;;17.03;94.12;101659.13;5076358;28;20020;-63
2022/08/27 00:21:25;;;;;;;3.17;2.05;;;;;;;17.00;94.16;101656.47;5088563;28;20376;-62
2022/08/27 00:23:51;;;;;;;3.88;2.08;;;;;;;16.96;94.31;101666.00;5088857;28;20132;-63
2022/08/27 00:26:16;;;;;;;3.00;2.13;;;;;;;16.91;95.30;101665.00;5088629;28;20052;-63
2022/08/27 00:28:42;;;;;;;5.05;2.22;;;;;;;16.87;94.71;101657.97;5071302;28;20031;-63
2022/08/27 00:31:08;;;;;;;3.08;2.15;;;;;;;16.83;95.20;101661.38;5083508;28;20059;-62
2022/08/27 00:33:34;;;;;;;5.30;2.10;;;;;;;16.78;95.05;101656.91;5088257;28;20031;-63
2022/08/27 00:36:01;;;;;;;5.85;2.10;;;;;;;16.73;95.84;101655.94;5087657;28;20039;-63
2022/08/27 00:38:27;;;;;;;3.65;1.98;;;;;;;16.69;95.75;101656.75;5078073;28;20023;-63
2022/08/27 00:40:54;;;;;;;6.88;1.73;;;;;;;16.63;96.54;101659.25;5088195;28;20024;-63
2022/08/27 00:43:24;;;;;;;5.82;2.15;;;;;;;16.58;96.85;101660.88;5087363;28;20051;-63
2022/08/27 00:45:52;;;;;;;4.03;2.10;;;;;;;16.54;97.34;101657.31;5088384;28;20031;-63
2022/08/27 00:48:20;;;;;;;3.05;2.05;;;;;;;16.51;97.04;101654.66;5060589;28;20021;-62
2022/08/27 00:50:50;;;;;;;5.05;2.30;;;;;;;16.42;98.15;101666.69;5076834;28;20044;-63
2022/08/27 00:53:21;;;;;;;4.37;1.80;;;;;;;16.37;98.68;101664.84;5062010;28;20028;-62
2022/08/27 00:55:53;;;;;;;4.13;2.03;;;;;;;16.25;99.54;101653.25;5066840;28;20770;-62
2022/08/27 00:58:31;;;;;;;6.13;3.05;;;;;;;16.19;100.00;101664.47;5067741;28;20029;-63
2022/08/27 01:00:58;;;;;;;4.68;2.75;;;;;;;16.17;100.00;101660.94;5067642;28;20094;-63
2022/08/27 01:03:27;;;;;;;4.65;2.45;;;;;;;16.12;100.00;101656.47;5067916;28;20385;-63
2022/08/27 01:05:57;;;;;;;6.22;2.17;;;;;;;16.07;100.00;101659.84;5067524;28;20023;-63
2022/08/27 01:08:25;;;;;;;6.57;2.83;;;;;;;16.02;100.00;101658.88;5067149;28;20039;-63
2022/08/27 01:10:52;;;;;;;4.22;2.50;;;;;;;15.93;100.00;101654.28;5068235;28;20263;-62
2022/08/27 01:13:22;;;;;;;4.50;2.30;;;;;;;15.86;100.00;101655.00;5067739;28;20025;-63
2022/08/27 01:15:48;;;;;;;4.47;2.40;;;;;;;15.78;100.00;101657.41;5067631;28;20021;-62
2022/08/27 01:18:14;;;;;;;6.70;2.53;;;;;;;15.72;100.00;101649.47;5067537;28;20028;-63
2022/08/27 01:21:02;;;;;;;4.50;2.60;;;;;;;15.65;100.00;101647.53;5067353;28;20039;-63
2022/08/27 01:23:39;;;;;;;5.93;3.28;;;;;;;15.58;100.00;101650.00;5056141;28;20035;-63
2022/08/27 01:26:07;;;;;;;5.70;2.72;;;;;;;15.54;100.00;101649.91;5067260;28;20048;-63
2022/08/27 01:28:35;;;;;;;4.13;2.58;;;;;;;15.51;100.00;101657.66;5067398;28;20025;-63
2022/08/27 01:31:04;;;;;;;7.03;3.38;;;;;;;15.45;100.00;101659.25;5067164;28;20354;-63
2022/08/27 01:33:29;;;;;;;4.70;2.80;;;;;;;15.40;100.00;101657.41;5067307;28;20024;-63
2022/08/27 01:35:54;;;;;;;8.02;2.97;;;;;;;15.35;100.00;101650.31;5067724;28;20043;-62
2022/08/27 01:38:20;;;;;;;4.88;2.92;;;;;;;15.37;100.00;101645.13;5054031;28;20043;-63
2022/08/27 01:40:46;;;;;;;6.03;2.92;;;;;;;15.37;100.00;101645.13;5074929;28;20020;-63
2022/08/27 01:43:12;;;;;;;3.20;2.78;;;;;;;15.33;100.00;101645.88;5087627;28;20052;-62
2022/08/27 01:45:43;;;;;;;3.95;2.70;;;;;;;15.30;100.00;101649.31;5087430;28;20099;-63
2022/08/27 01:48:09;;;;;;;5.22;3.08;;;;;;;15.27;100.00;101645.75;5087436;28;20383;-63
2022/08/27 01:50:38;;;;;;;2.92;2.35;;;;;;;15.21;100.00;101641.25;5083455;28;20024;-63
2022/08/27 01:53:09;;;;;;;6.82;2.85;;;;;;;15.16;100.00;101651.59;5078096;28;20032;-63
2022/08/27 01:55:36;;;;;;;5.43;2.65;;;;;;;15.07;100.00;101644.41;5087630;28;20008;-63
2022/08/27 01:58:02;;;;;;;3.60;2.55;;;;;;;14.99;100.00;101645.91;5087694;28;20555;-63
2022/08/27 02:00:33;;;;;;;7.28;3.00;;;;;;;14.92;100.00;101644.88;5087611;28;20024;-62
2022/08/27 02:02:59;;;;;;;6.80;3.55;;;;;;;14.93;100.00;101640.53;5087605;28;20032;-62
2022/08/27 02:05:27;;;;;;;6.25;2.92;;;;;;;14.89;100.00;101640.44;5088192;28;20476;-63
2022/08/27 02:07:53;;;;;;;6.68;3.05;;;;;;;14.85;100.00;101646.44;5091272;28;20016;-63
2022/08/27 02:10:22;;;;;;;7.05;3.22;;;;;;;14.76;100.00;101635.72;5091329;28;20043;-62
2022/08/27 02:12:48;;;;;;;5.50;2.85;;;;;;;14.69;100.00;101639.00;5091580;28;20039;-62
2022/08/27 02:15:14;;;;;;;5.38;3.17;;;;;;;14.63;100.00;101640.59;5090823;28;20031;-63
2022/08/27 02:17:39;;;;;;;5.95;2.80;;;;;;;14.59;100.00;101638.72;5090983;28;20028;-64
2022/08/27 02:20:08;;;;;;;6.05;2.83;;;;;;;14.55;100.00;101630.78;5091072;28;20111;-63
2022/08/27 02:22:34;;;;;;;6.80;3.47;;;;;;;14.50;100.00;101636.75;5076460;28;20040;-63
2022/08/27 02:24:59;;;;;;;5.93;3.50;;;;;;;14.47;100.00;101633.16;5090290;28;20238;-62
2022/08/27 02:27:24;;;;;;;4.63;3.60;;;;;;;14.43;100.00;101631.31;5080134;28;20032;-62
2022/08/27 02:29:51;;;;;;;5.28;3.17;;;;;;;14.39;100.00;101628.59;5084943;28;20032;-62
2022/08/27 02:32:16;;;;;;;5.10;3.70;;;;;;;14.36;100.00;101625.91;5082488;28;20585;-62
2022/08/27 02:34:42;;;;;;;4.85;3.28;;;;;;;14.35;100.00;101631.09;5090415;28;20040;-62
2022/08/27 02:37:07;;;;;;;4.93;3.33;;;;;;;14.33;100.00;101623.25;5090892;28;20032;-62
2022/08/27 02:39:33;;;;;;;5.07;3.10;;;;;;;14.29;100.00;101621.38;5090431;28;20027;-63
2022/08/27 02:41:59;;;;;;;6.10;3.60;;;;;;;14.23;100.00;101622.06;5090639;28;20055;-63
2022/08/27 02:44:24;;;;;;;5.35;3.55;;;;;;;14.20;100.00;101631.53;5090544;28;20035;-63
2022/08/27 02:46:50;;;;;;;5.72;3.58;;;;;;;14.17;100.00;101633.19;5089926;28;20879;-63
2022/08/27 02:49:16;;;;;;;7.47;4.05;;;;;;;14.16;100.00;101633.16;5090617;28;20074;-63
2022/08/27 02:51:42;;;;;;;9.63;3.85;;;;;;;14.13;100.00;101627.84;5090401;28;20032;-63
2022/08/27 02:54:07;;;;;;;5.32;3.42;;;;;;;14.08;100.00;101626.84;5090846;28;20036;-63
2022/08/27 02:56:32;;;;;;;7.72;4.20;;;;;;;14.07;100.00;101633.75;5090010;28;20469;-63
2022/08/27 02:58:58;;;;;;;8.95;3.78;;;;;;;14.07;100.00;101628.53;5090389;28;20476;-63
2022/08/27 03:01:24;;;;;;;6.72;3.40;;;;;;;14.08;100.00;101627.72;5090147;28;20024;-63
2022/08/27 03:03:49;;;;;;;4.68;3.53;;;;;;;14.07;100.00;101633.75;5090170;28;20039;-63
2022/08/27 03:06:15;;;;;;;7.25;4.00;;;;;;;14.06;100.00;101634.59;5090131;28;20039;-63
2022/08/27 03:08:40;;;;;;;4.85;3.10;;;;;;;14.08;100.00;101629.44;5089287;28;20468;-62
2022/08/27 03:11:08;;;;;;;4.40;3.53;;;;;;;14.08;100.00;101630.34;5089590;28;20032;-62
2022/08/27 03:13:38;;;;;;;6.82;3.80;;;;;;;14.10;100.00;101623.44;5090100;28;20031;-62
2022/08/27 03:16:04;;;;;;;9.68;4.57;;;;;;;14.11;100.00;101625.19;5089320;28;20032;-62
2022/08/27 03:18:31;;;;;;;7.88;3.33;;;;;;;14.10;100.00;101626.06;5090070;28;20538;-62
2022/08/27 03:20:56;;;;;;;4.30;3.75;;;;;;;14.08;100.00;101635.53;5089601;28;20027;-63
2022/08/27 03:23:25;;;;;;;7.05;4.05;;;;;;;14.10;100.00;101630.38;5089947;28;20031;-63
2022/08/27 03:25:54;;;;;;;7.95;3.85;;;;;;;14.11;100.00;101630.41;5090148;28;20502;-61
2022/08/27 03:28:21;;;;;;;6.40;3.50;;;;;;;14.10;100.00;101633.88;5089609;28;20036;-63
2022/08/27 03:30:53;;;;;;;4.00;3.60;;;;;;;14.08;100.00;101627.72;5089228;28;20606;-63
2022/08/27 03:33:20;;;;;;;6.47;3.90;;;;;;;14.04;100.00;101628.47;5089572;28;20036;-62
2022/08/27 03:35:47;;;;;;;5.28;4.07;;;;;;;14.05;100.00;101635.44;5089433;28;20033;-62
2022/08/27 03:38:13;;;;;;;4.28;3.88;;;;;;;14.02;100.00;101633.63;5089534;28;20444;-63
2022/08/27 03:40:39;;;;;;;6.65;3.90;;;;;;;14.00;100.00;101637.00;5089264;28;20024;-62
2022/08/27 03:43:04;;;;;;;6.72;3.90;;;;;;;14.00;100.00;101637.00;5088494;28;20052;-63
2022/08/27 03:45:30;;;;;;;6.05;4.07;;;;;;;14.00;100.00;101637.00;5089522;28;20024;-62
2022/08/27 03:47:55;;;;;;;7.18;3.85;;;;;;;13.98;100.00;101639.56;5089322;28;20038;-62
2022/08/27 03:50:20;;;;;;;5.93;4.03;;;;;;;14.01;100.00;101638.81;5089126;28;20031;-62
2022/08/27 03:52:46;;;;;;;5.32;4.35;;;;;;;14.02;100.00;101640.56;5089266;28;20021;-62
2022/08/27 03:55:11;;;;;;;7.28;4.30;;;;;;;14.03;100.00;101634.53;5088828;28;20077;-62
2022/08/27 03:57:37;;;;;;;6.22;4.47;;;;;;;14.07;100.00;101635.50;5089442;28;20077;-62
2022/08/27 04:00:05;;;;;;;7.90;4.90;;;;;;;14.06;100.00;101634.59;5076557;28;20040;-62
2022/08/27 04:02:30;;;;;;;8.73;4.53;;;;;;;14.07;100.00;101632.91;5087404;28;20064;-62
2022/08/27 04:04:56;;;;;;;6.68;4.45;;;;;;;14.05;100.00;101631.09;5089275;28;20104;-62
2022/08/27 04:07:21;;;;;;;4.53;4.07;;;;;;;14.00;100.00;101629.19;5088427;28;20035;-62
2022/08/27 04:09:47;;;;;;;6.25;4.47;;;;;;;13.95;100.00;101631.69;5089409;28;20020;-62
2022/08/27 04:12:12;;;;;;;8.25;4.40;;;;;;;13.93;100.00;101629.03;5088834;28;20024;-62
2022/08/27 04:14:37;;;;;;;8.68;4.90;;;;;;;13.90;100.00;101628.03;5088791;28;20024;-62
2022/08/27 04:17:03;;;;;;;6.05;4.78;;;;;;;13.89;100.00;101634.97;5088996;28;20468;-62
2022/08/27 04:19:31;;;;;;;6.18;4.20;;;;;;;13.84;100.00;101636.56;5088499;28;20028;-61
2022/08/27 04:21:59;;;;;;;6.30;4.47;;;;;;;13.79;100.00;101622.50;5089211;28;20020;-62
2022/08/27 04:24:24;;;;;;;9.70;4.38;;;;;;;13.75;100.00;101625.84;5088869;28;20028;-62
2022/08/27 04:26:50;;;;;;;5.72;3.90;;;;;;;13.72;100.00;101629.25;5088497;28;20042;-63
2022/08/27 04:29:15;;;;;;;6.10;4.35;;;;;;;13.69;100.00;101623.91;5087941;28;20408;-62
2022/08/27 04:31:40;;;;;;;5.93;4.53;;;;;;;13.68;100.00;101625.66;5088089;28;20205;-62
2022/08/27 04:34:06;;;;;;;6.53;4.82;;;;;;;13.64;100.00;101633.31;5088265;28;20028;-62
2022/08/27 04:36:31;;;;;;;6.20;4.53;;;;;;;13.63;100.00;101631.56;5088101;28;20143;-62
2022/08/27 04:38:57;;;;;;;6.60;4.70;;;;;;;13.60;100.00;101640.13;5086688;28;20023;-62
2022/08/27 04:41:23;;;;;;;8.38;4.97;;;;;;;13.57;100.00;101632.22;5086362;28;20388;-62
2022/08/27 04:43:55;;;;;;;9.68;5.18;;;;;;;13.58;100.00;101649.66;5085123;28;20107;-63
2022/08/27 04:46:28;;;;;;;5.25;4.63;;;;;;;13.61;100.00;101638.44;5060309;28;20094;-63
2022/08/27 04:48:56;;;;;;;9.30;5.10;;;;;;;13.61;100.00;101641.91;5083286;28;20098;-62
2022/08/27 04:51:22;;;;;;;6.40;4.93;;;;;;;13.60;100.00;101642.75;5069275;28;20039;-62
2022/08/27 04:53:48;;;;;;;6.07;4.30;;;;;;;13.55;100.00;101641.72;5068795;28;20024;-62
2022/08/27 04:56:15;;;;;;;9.82;4.88;;;;;;;13.53;100.00;101645.97;5087218;28;20040;-63
2022/08/27 04:58:41;;;;;;;7.07;5.28;;;;;;;13.51;100.00;101642.44;5087115;28;20468;-63
2022/08/27 05:01:08;;;;;;;10.20;5.18;;;;;;;13.50;100.00;101638.03;5087355;28;20028;-62
2022/08/27 05:03:33;;;;;;;10.77;5.90;;;;;;;13.50;100.00;101636.34;5087371;28;20530;-63
2022/08/27 05:06:02;;;;;;;10.75;5.40;;;;;;;13.51;100.00;101647.63;5087394;28;20055;-62
2022/08/27 05:08:27;;;;;;;6.55;5.40;;;;;;;13.51;100.00;101643.28;5086954;28;20392;-62
2022/08/27 05:10:52;;;;;;;8.00;6.20;;;;;;;13.54;100.00;101647.75;5086974;28;20077;-62
2022/08/27 05:13:20;;;;;;;8.02;6.20;;;;;;;13.59;100.00;101648.78;5086686;28;20020;-62
2022/08/27 05:15:46;;;;;;;8.20;5.60;;;;;;;13.64;100.00;101647.22;5062831;28;20039;-62
2022/08/27 05:18:12;;;;;;;7.68;5.88;;;;;;;13.70;100.00;101646.53;5064484;28;20032;-62
2022/08/27 05:20:46;;;;;;;6.32;5.72;;;;;;;13.76;100.00;101648.47;5066134;28;20028;-62
2022/08/27 05:23:12;;;;;;;7.75;5.93;;;;;;;13.81;100.00;101649.50;5064118;28;20024;-62
2022/08/27 05:25:40;;;;;;;8.15;6.78;;;;;;;13.85;100.00;101648.72;5066574;28;20028;-62
2022/08/27 05:28:06;;;;;;;7.10;6.50;;;;;;;13.90;100.00;101655.00;5068795;28;20800;-62
2022/08/27 05:30:39;;;;;;;8.95;5.88;;;;;;;13.96;100.00;101662.09;5066771;28;20434;-61
2022/08/27 05:33:06;;;;;;;7.00;5.95;;;;;;;14.00;100.00;101655.25;5054672;28;20078;-62
2022/08/27 05:35:32;;;;;;;7.30;6.57;;;;;;;14.07;100.00;101656.34;5069271;28;20078;-62
2022/08/27 05:37:58;;;;;;;7.53;6.40;;;;;;;14.14;100.00;101660.88;5066701;28;20032;-63
2022/08/27 05:40:24;;;;;;;8.70;6.93;;;;;;;14.22;100.00;101648.09;5061031;28;20028;-64
2022/08/27 05:42:50;;;;;;;7.70;6.43;;;;;;;14.33;100.00;101662.34;5091058;28;20135;-63
2022/08/27 05:45:15;;;;;;;8.52;7.60;;;;;;;14.44;100.00;101659.16;5090840;28;20036;-62
2022/08/27 05:47:41;;;;;;;9.77;7.18;;;;;;;14.57;100.00;101656.03;5090834;28;20460;-63
2022/08/27 05:50:07;;;;;;;10.50;7.35;;;;;;;14.68;100.00;101653.75;5090639;28;20024;-63
2022/08/27 05:52:33;;;;;;;9.63;6.90;;;;;;;14.80;100.00;101658.44;5056405;28;20923;-63
2022/08/27 05:54:58;;;;;;;11.00;7.07;;;;;;;14.92;100.00;101657.03;5054580;28;20028;-63
2022/08/27 05:57:23;;;;;;;8.13;6.68;;;;;;;15.04;100.00;101656.47;5063050;28;20047;-63
2022/08/27 06:02:35;;;;;;;8.40;6.70;;;;;;;15.25;100.00;101661.38;5056253;28;20116;-63
2022/08/27 06:05:03;;;;;;;8.55;6.63;;;;;;;15.30;100.00;101662.38;5058043;28;20320;-63
2022/08/27 06:07:28;;;;;;;9.13;6.68;;;;;;;15.36;100.00;101664.25;5058079;28;20046;-63
2022/08/27 06:09:54;;;;;;;10.07;6.93;;;;;;;15.41;100.00;101669.59;5052322;28;20024;-63
2022/08/27 06:12:20;;;;;;;8.90;6.88;;;;;;;15.45;100.00;101674.06;5052829;28;20048;-63
2022/08/27 06:14:45;;;;;;;9.48;6.85;;;;;;;15.47;100.00;101669.75;5050553;28;20136;-63
2022/08/27 06:17:10;;;;;;;7.97;6.45;;;;;;;15.50;100.00;101677.66;5051894;28;20429;-63
2022/08/27 06:19:36;;;;;;;9.20;6.38;;;;;;;15.53;100.00;101671.63;5051368;28;20020;-64
2022/08/27 06:22:01;;;;;;;9.23;6.78;;;;;;;15.55;100.00;101670.81;5058757;28;20116;-64
2022/08/27 06:24:27;;;;;;;6.75;5.82;;;;;;;15.60;100.00;101671.81;5061582;28;20044;-64
2022/08/27 06:26:53;;;;;;;7.35;5.88;;;;;;;15.64;100.00;101675.38;5049675;28;20320;-63
2022/08/27 06:29:18;;;;;;;6.90;5.95;;;;;;;15.70;100.00;101669.44;5057372;28;20106;-63
2022/08/27 06:31:43;;;;;;;6.95;6.22;;;;;;;15.75;100.00;101667.81;5055291;28;20207;-64
2022/08/27 06:34:10;;;;;;;9.40;5.20;;;;;;;15.79;100.00;101668.75;5062949;28;20036;-63
2022/08/27 06:36:38;;;;;;;10.45;6.10;;;;;;;15.85;100.00;101668.88;5058963;28;20024;-63
2022/08/27 06:39:04;;;;;;;6.85;5.45;;;;;;;15.88;100.00;101669.00;5050303;28;20029;-63
2022/08/27 06:41:31;;;;;;;7.03;5.10;;;;;;;15.92;100.00;101675.16;5051018;28;20195;-63
2022/08/27 06:43:57;;;;;;;8.10;4.72;;;;;;;15.95;100.00;101672.63;5048734;28;20029;-64
2022/08/27 06:46:24;;;;;;;7.80;4.28;;;;;;;15.99;100.00;101676.19;5050629;28;20582;-63
2022/08/27 06:48:55;;;;;;;7.22;4.20;;;;;;;16.02;100.00;101677.16;5071160;28;20494;-63
2022/08/27 06:51:24;;;;;;;;;;;;;;;16.05;100.00;101672.00;5078832;28;20033;-63
2022/08/27 06:53:51;;;;;;;5.68;4.00;;;;;;;16.09;100.00;101675.56;5069500;28;20280;-63
2022/08/27 06:56:17;;;;;;;7.80;4.30;;;;;;;16.12;100.00;101672.16;5069751;28;20025;-64
2022/08/27 06:58:43;;;;;;;7.90;4.57;;;;;;;16.17;100.00;101675.75;5051616;28;20862;-63
2022/08/27 07:01:18;;;;;;;7.30;4.00;;;;;;;16.20;100.00;101676.69;5054310;28;20354;-63
2022/08/27 07:03:44;;;;;;;6.65;4.55;;;;;;;16.26;100.00;101672.44;5063289;28;20032;-63
2022/08/27 07:06:11;;;;;;;10.07;5.03;;;;;;;16.30;100.00;101676.88;5066479;28;20033;-63
2022/08/27 07:08:38;;;;;;;7.72;4.50;;;;;;;16.33;100.00;101674.34;5057780;28;20077;-63
2022/08/27 07:11:04;;;;;;;6.05;3.85;;;;;;;16.37;100.00;101672.69;5057167;28;20516;-64
2022/08/27 07:13:29;;;;;;;5.18;3.80;;;;;;;16.41;100.00;101677.09;5060050;28;20139;-63
2022/08/27 07:15:55;;;;;;;5.25;3.50;;;;;;;16.43;100.00;101673.69;5068006;28;20458;-63
2022/08/27 07:18:21;;;;;;;4.20;3.28;;;;;;;16.48;100.00;101678.16;5061929;28;20467;-63
2022/08/27 07:20:47;;;;;;;5.72;4.25;;;;;;;16.53;100.00;101686.97;5051103;28;20029;-64
2022/08/27 07:23:13;;;;;;;6.00;4.20;;;;;;;16.56;100.00;101685.28;5050397;28;20017;-63
2022/08/27 07:25:40;;;;;;;5.72;4.00;;;;;;;16.61;100.00;101682.75;5049384;28;20476;-63
2022/08/27 07:28:06;;;;;;;6.28;4.85;;;;;;;16.66;100.00;101686.34;5050370;28;20021;-63
2022/08/27 07:30:31;;;;;;;8.25;5.07;;;;;;;16.71;100.00;101683.84;5048338;28;20021;-64
2022/08/27 07:32:56;;;;;;;5.55;4.45;;;;;;;16.77;100.00;101690.91;5048137;28;20116;-64
2022/08/27 07:35:22;;;;;;;6.35;5.07;;;;;;;16.80;100.00;101688.38;5047893;28;20025;-64
2022/08/27 07:37:47;;;;;;;6.97;4.85;;;;;;;16.85;100.00;101691.06;5052814;28;20025;-63
2022/08/27 07:40:14;;;;;;;8.35;4.43;;;;;;;16.91;100.00;101688.56;5069200;28;20016;-64
2022/08/27 07:45:27;;;;;;;6.60;4.18;;;;;;;17.05;100.00;101687.09;5048846;28;20581;-64
2022/08/27 07:47:53;;;;;;;7.05;4.80;;;;;;;17.11;100.00;101688.97;5047660;28;20032;-64
2022/08/27 07:50:19;;;;;;;10.07;4.22;;;;;;;17.16;100.00;101694.31;5053224;28;20071;-64
2022/08/27 07:52:44;;;;;;;8.55;4.70;;;;;;;17.21;99.86;101690.03;5050688;28;20033;-65
2022/08/27 07:55:11;;;;;;;7.45;4.43;;;;;;;17.28;100.00;101706.72;5052280;28;20059;-64
2022/08/27 07:57:36;;;;;;;6.97;5.05;;;;;;;17.35;99.96;101692.00;5051082;28;20082;-64
2022/08/27 08:00:03;;;;;;;5.43;4.22;;;;;;;17.51;99.84;101693.16;5048172;28;20029;-63
2022/08/27 08:02:30;;;;;;;8.40;5.30;;;;;;;17.65;98.54;101701.22;5046653;28;20021;-63
2022/08/27 08:04:55;;;;;;;6.15;4.15;;;;;;;17.81;97.80;101697.09;5047371;28;20041;-65
2022/08/27 08:07:27;;;;;;;8.18;4.82;;;;;;;17.97;96.44;101700.84;5044151;28;20362;-64
2022/08/27 08:09:53;;;;;;;7.50;3.90;;;;;;;18.09;95.03;101700.16;5049709;28;20108;-64
2022/08/27 08:12:18;;;;;;;6.80;4.13;;;;;;;18.21;92.57;101694.22;5049683;28;20074;-64
2022/08/27 08:14:44;;;;;;;5.07;3.78;;;;;;;18.40;90.58;101686.63;5048753;28;20028;-64
2022/08/27 08:17:09;;;;;;;5.47;4.30;;;;;;;18.68;90.38;101688.66;5051012;28;20047;-64
2022/08/27 08:19:35;;;;;;;6.00;3.80;;;;;;;18.97;86.16;101690.75;5048079;28;20036;-64
2022/08/27 08:22:00;;;;;;;5.85;3.78;;;;;;;19.26;84.93;101691.94;5048934;28;20048;-63
2022/08/27 08:24:25;;;;;;;5.15;3.65;;;;;;;19.53;84.46;101687.78;5045668;28;20339;-63
2022/08/27 08:26:51;;;;;;;4.05;3.33;;;;;;;19.71;81.58;101688.78;5051642;28;20154;-64
2022/08/27 08:29:17;;;;;;;8.63;4.80;;;;;;;19.90;80.92;101697.66;5049846;28;20025;-64
2022/08/27 08:31:42;;;;;;;6.75;3.70;;;;;;;20.11;77.78;101696.94;5051252;28;20166;-63
2022/08/27 08:34:09;;;;;;;4.75;3.22;;;;;;;20.53;75.88;101701.53;5060803;28;20028;-64
2022/08/27 08:36:35;;;;;;;5.50;2.92;;;;;;;21.03;73.00;101700.84;5052282;28;20028;-64
2022/08/27 08:39:00;;;;;;;7.95;3.45;;;;;;;21.40;69.56;101702.63;5061447;28;20503;-64
2022/08/27 08:41:35;;;;;;;3.42;2.50;;;;;;;21.56;68.79;101696.50;5068549;28;20040;-63
2022/08/27 08:44:15;;;;;;;5.25;2.67;;;;;;;21.87;69.33;101692.09;5053108;28;20043;-64
2022/08/27 08:47:13;;;;;;;5.25;2.40;;;;;;;21.94;66.95;101693.81;5064966;28;20035;-64
2022/08/27 08:50:01;;;;;;;4.20;2.47;;;;;;;21.93;65.31;101692.94;5053175;28;20064;-63
2022/08/27 08:52:33;;;;;;;6.20;1.65;;;;;;;21.61;64.14;101693.84;5056171;28;20021;-64
2022/08/27 08:55:12;;;;;;;3.30;1.58;;;;;;;21.31;65.20;101699.13;5056567;28;20033;-64
2022/08/27 08:58:06;;;;;;;2.75;1.70;;;;;;;20.93;66.15;101692.88;5051282;28;20028;-64
2022/08/27 09:00:32;;;;;;;4.38;1.90;;;;;;;20.79;67.75;101705.13;5052456;28;20021;-63
2022/08/27 09:02:57;;;;;;;4.45;1.80;;;;;;;20.92;68.59;101698.16;5054783;28;20175;-64
2022/08/27 09:05:24;;;;;;;3.30;1.63;;;;;;;21.21;68.71;101702.59;5059162;28;20033;-64
2022/08/27 09:07:55;;;;;;;3.92;1.58;;;;;;;21.43;65.42;101703.50;5063361;28;20033;-64
2022/08/27 09:10:39;;;;;;;;;;;;;;;21.53;63.34;101706.16;5067459;28;20073;-64
2022/08/27 09:13:13;;;;;;;2.90;1.80;;;;;;;21.46;63.60;101708.78;5056641;28;20315;-64
2022/08/27 09:15:39;;;;;;;3.92;1.80;;;;;;;21.32;63.88;101703.50;5052449;28;20024;-64
2022/08/27 09:18:12;;;;;;;2.75;1.70;;;;;;;21.22;65.10;101712.28;5043280;28;20364;-64
2022/08/27 09:20:41;;;;;;;2.85;1.63;;;;;;;21.18;66.73;101713.16;5052872;28;20139;-65
2022/08/27 09:23:24;;;;;;;3.80;2.03;;;;;;;21.10;65.31;101706.13;5062822;28;20026;-63
2022/08/27 09:25:50;;;;;;;3.90;1.75;;;;;;;21.02;65.69;101709.63;5050412;28;20539;-63
2022/08/27 09:31:19;;;;;;;4.72;1.77;;;;;;;20.88;65.46;101698.13;5053173;28;20496;-64
2022/08/27 09:33:45;;;;;;;2.65;1.42;;;;;;;20.84;65.81;101709.56;5052841;28;20477;-63
2022/08/27 09:36:14;;;;;;;2.83;1.70;;;;;;;20.83;67.77;101718.31;5051372;28;20033;-64
2022/08/27 09:38:51;;;;;;;4.50;2.00;;;;;;;20.78;65.48;101704.25;5053715;28;20476;-64
2022/08/27 09:41:22;;;;;;;3.42;1.50;;;;;;;20.82;67.14;101700.75;5075012;28;20028;-62
2022/08/27 09:43:55;;;;;;;;;;;;;;;20.88;66.33;101700.75;5087480;28;20012;-61
2022/08/27 09:46:24;;;;;;;3.53;1.60;;;;;;;20.90;66.32;101702.53;5086332;28;19978;-61
2022/08/27 09:48:49;;;;;;;3.50;1.52;;;;;;;20.95;66.08;101706.09;5071607;28;20044;-62
2022/08/27 09:51:26;;;;;;;4.57;1.70;;;;;;;21.06;65.30;101704.38;5047782;28;20052;-62
2022/08/27 09:54:03;;;;;;;2.88;1.30;;;;;;;21.35;65.68;101708.78;5048241;28;20456;-62
2022/08/27 09:56:31;;;;;;;4.32;1.80;;;;;;;21.72;65.60;101707.00;5064981;28;20031;-62
2022/08/27 09:59:07;;;;;;;3.10;1.10;;;;;;;22.07;63.69;101700.81;5064553;28;20480;-61
2022/08/27 10:01:37;;;;;;;2.80;1.23;;;;;;;22.42;62.70;101698.94;5065146;28;20032;-62
2022/08/27 10:04:13;;;;;;;1.92;1.33;;;;;;;22.66;57.99;101706.78;5054936;28;20031;-63
2022/08/27 10:06:45;;;;;;;2.08;0.93;;;;;;;22.87;58.07;101702.28;5066725;28;20025;-62
2022/08/27 10:09:16;;;;;;;2.35;1.10;;;;;;;23.11;56.92;101700.38;5056250;28;20056;-62
2022/08/27 10:12:18;;;;;;;3.60;1.50;;;;;;;23.34;55.30;101696.66;5055315;28;20036;-61
2022/08/27 10:14:48;;;;;;;2.72;1.60;;;;;;;23.51;55.39;101694.78;5064780;28;20031;-62
2022/08/27 10:17:31;;;;;;;2.25;1.20;;;;;;;23.36;54.59;101689.59;5064731;28;20082;-62
2022/08/27 10:20:30;;;;;;;4.05;1.52;;;;;;;23.02;55.03;101688.97;5056544;28;20099;-62
2022/08/27 10:23:02;;;;;;;2.75;1.42;;;;;;;22.72;56.04;101696.19;5047904;28;20385;-62
2022/08/27 10:25:49;;;;;;;3.33;1.45;;;;;;;22.43;55.26;101694.56;5045623;28;20016;-62
2022/08/27 10:28:33;;;;;;;1.70;1.13;;;;;;;22.15;56.47;101695.53;5067132;28;20040;-62
2022/08/27 10:31:21;;;;;;;4.63;1.70;;;;;;;22.03;57.73;101693.81;5068745;28;20024;-62
2022/08/27 10:33:59;;;;;;;2.67;1.30;;;;;;;21.99;57.62;101696.44;5050636;28;20025;-62
2022/08/27 10:36:43;;;;;;;2.63;1.23;;;;;;;21.98;58.67;101686.78;5065341;28;20209;-62
2022/08/27 10:39:28;;;;;;;2.42;1.23;;;;;;;21.96;58.30;101694.72;5055089;28;20029;-62
2022/08/27 10:42:32;;;;;;;2.47;1.17;;;;;;;21.93;57.90;101692.94;5053786;28;20057;-63
2022/08/27 10:45:21;;;;;;;2.45;1.00;;;;;;;21.85;58.02;101689.44;5042721;28;20128;-62
2022/08/27 10:48:11;;;;;;;2.97;1.40;;;;;;;21.82;58.83;101695.59;5058884;28;20040;-62
2022/08/27 10:50:54;;;;;;;3.90;1.92;;;;;;;21.87;59.58;101692.97;5051227;28;20483;-61
2022/08/27 10:53:29;;;;;;;3.08;1.23;;;;;;;21.94;58.54;101689.44;5053973;28;20044;-61
2022/08/27 10:56:20;;;;;;;3.40;1.13;;;;;;;22.05;58.12;101686.78;5057300;28;20036;-62
2022/08/27 10:58:59;;;;;;;2.72;1.05;;;;;;;22.12;59.46;101677.06;5057120;28;20381;-62
2022/08/27 11:01:43;;;;;;;3.15;1.00;;;;;;;22.24;58.39;101689.34;5048333;28;20271;-62
2022/08/27 11:04:16;;;;;;;2.22;1.05;;;;;;;22.39;58.78;101684.88;5048298;28;20020;-62
2022/08/27 11:06:56;;;;;;;4.28;0.93;;;;;;;22.52;57.75;101676.00;5050674;28;20017;-62
2022/08/27 11:09:46;;;;;;;2.05;1.00;;;;;;;22.57;57.38;101677.75;5051857;28;20306;-62
2022/08/27 11:12:16;;;;;;;2.70;1.13;;;;;;;22.45;56.14;101679.56;5050071;28;20436;-61
2022/08/27 11:14:50;;;;;;;2.97;1.03;;;;;;;22.37;56.94;101681.38;5053527;28;20085;-62
2022/08/27 11:17:43;;;;;;;2.90;1.00;;;;;;;22.30;57.33;101681.41;5062192;28;20052;-62
2022/08/27 11:20:27;;;;;;;2.17;0.95;;;;;;;22.27;58.16;101684.03;5052602;28;20412;-62
2022/08/27 11:22:53;;;;;;;2.20;0.90;;;;;;;22.22;56.70;101677.91;5050621;28;20021;-62
2022/08/27 11:25:21;;;;;;;2.13;1.00;;;;;;;22.26;57.75;101682.31;5051494;28;20097;-62
2022/08/27 11:27:50;;;;;;;2.33;1.30;;;;;;;22.26;57.20;101679.66;5047825;28;20025;-62
2022/08/27 11:30:33;;;;;;;3.13;1.40;;;;;;;22.22;57.09;101672.63;5053554;28;20033;-62
2022/08/27 11:33:15;;;;;;;1.95;1.00;;;;;;;22.20;57.13;101674.38;5068947;28;20024;-62
2022/08/27 11:36:02;;;;;;;3.17;1.02;;;;;;;22.18;57.50;101676.19;5068148;28;20028;-61
2022/08/27 11:38:51;;;;;;;2.72;1.02;;;;;;;22.22;58.26;101677.06;5055928;28;20134;-62
2022/08/27 11:41:28;;;;;;;2.15;1.40;;;;;;;22.24;57.60;101670.88;5049432;28;20020;-62